Time,TemperatureF,DewpointF,PressureIn,WindDirection,WindDirectionDegrees,WindSpeedMPH,WindSpeedGustMPH,Humidity,HourlyPrecipIn,Conditions,Clouds,dailyrainin,SoftwareType,DateUTC
2013-12-18 00:01:00,23.5,16.8,28.83,SE,135,12.7,12.7,75,0.00,CLR,,0.00,WeatherDisplay:10.37,2013-12-18 06:01:00,
2013-12-18 00:06:00,23.5,16.8,28.82,SE,135,12.7,12.7,75,0.00,CLR,,0.00,WeatherDisplay:10.37,2013-12-18 06:06:00,
2013-12-18 00:11:00,23.9,16.5,28.82,South,180,12.7,12.7,73,0.00,CLR,,0.00,WeatherDisplay:10.37,2013-12-18 06:11:00,
2013-12-18 00:16:00,24.3,17.2,28.81,SE,135,15.0,15.0,74,0.00,CLR,,0.00,WeatherDisplay:10.37,2013-12-18 06:16:00,
2013-12-18 00:21:00,24.6,17.2,28.81,SE,135,15.0,15.0,73,0.00,CLR,,0.00,WeatherDisplay:10.37,2013-12-18 06:21:00,
2013-12-18 00:26:00,24.6,17.2,28.80,South,180,15.0,15.0,73,0.00,CLR,,0.00,WeatherDisplay:10.37,2013-12-18 06:26:00,
2013-12-18 00:31:00,24.6,17.5,28.80,South,180,12.7,12.7,74,0.00,CLR,,0.00,WeatherDisplay:10.37,2013-12-18 06:31:00,
2013-12-18 00:36:00,25.0,18.2,28.79,SE,135,12.7,12.7,75,0.00,CLR,,0.00,WeatherDisplay:10.37,2013-12-18 06:36:00,
2013-12-18 00:41:00,25.5,18.4,28.78,SSE,158,10.4,10.4,74,0.00,CLR,,0.00,WeatherDisplay:10.37,2013-12-18 06:41:00,
2013-12-18 00:46:00,25.7,18.6,28.78,South,180,12.7,12.7,74,0.00,CLR,,0.00,WeatherDisplay:10.37,2013-12-18 06:46:00,
2013-12-18 00:51:00,26.4,19.3,28.77,SSE,158,16.1,16.1,74,0.00,CLR,,0.00,WeatherDisplay:10.37,2013-12-18 06:51:00,
2013-12-18 00:56:00,26.6,19.4,28.77,SSE,158,16.1,16.1,74,0.00,CLR,,0.00,WeatherDisplay:10.37,2013-12-18 06:56:00,
2013-12-18 01:01:00,27.0,19.8,28.76,SSE,158,13.8,13.8,74,0.00,CLR,,0.00,WeatherDisplay:10.37,2013-12-18 07:01:00,
2013-12-18 01:06:00,27.0,19.8,28.76,SSE,158,13.8,13.8,74,0.00,CLR,,0.00,WeatherDisplay:10.37,2013-12-18 07:06:00,
2013-12-18 01:11:00,27.0,20.1,28.75,South,180,15.0,15.0,75,0.00,CLR,,0.00,WeatherDisplay:10.37,2013-12-18 07:11:00,
2013-12-18 01:16:00,26.8,19.9,28.75,South,180,17.3,17.3,75,0.00,CLR,,0.00,WeatherDisplay:10.37,2013-12-18 07:16:00,
2013-12-18 01:21:00,26.6,20.1,28.75,South,180,15.0,15.0,76,0.00,CLR,,0.00,WeatherDisplay:10.37,2013-12-18 07:21:00,
2013-12-18 01:26:00,26.4,19.9,28.75,SSE,158,13.8,13.8,76,0.00,CLR,,0.00,WeatherDisplay:10.37,2013-12-18 07:26:00,
2013-12-18 01:31:00,26.4,20.2,28.75,South,180,12.7,12.7,77,0.00,CLR,,0.00,WeatherDisplay:10.37,2013-12-18 07:31:00,
2013-12-18 01:36:00,26.4,20.2,28.74,South,180,12.7,12.7,77,0.00,CLR,,0.00,WeatherDisplay:10.37,2013-12-18 07:36:00,
2013-12-18 01:41:00,26.4,20.2,28.74,South,180,11.5,11.5,77,0.00,CLR,,0.00,WeatherDisplay:10.37,2013-12-18 07:41:00,
2013-12-18 01:46:00,26.4,20.2,28.74,South,180,13.8,13.8,77,0.00,CLR,,0.00,WeatherDisplay:10.37,2013-12-18 07:46:00,
2013-12-18 01:51:00,26.2,20.0,28.74,SE,135,13.8,13.8,77,0.00,CLR,,0.00,WeatherDisplay:10.37,2013-12-18 07:51:00,
2013-12-18 01:56:00,26.1,19.8,28.73,South,180,13.8,13.8,77,0.00,CLR,,0.00,WeatherDisplay:10.37,2013-12-18 07:56:00,
2013-12-18 02:01:00,25.9,20.0,28.73,South,180,11.5,11.5,78,0.00,CLR,,0.00,WeatherDisplay:10.37,2013-12-18 08:01:00,
2013-12-18 02:06:00,25.9,20.0,28.72,South,180,10.4,10.4,78,0.00,CLR,,0.00,WeatherDisplay:10.37,2013-12-18 08:06:00,
2013-12-18 02:11:00,25.9,20.0,28.72,SE,135,15.0,15.0,78,0.00,CLR,,0.00,WeatherDisplay:10.37,2013-12-18 08:11:00,
2013-12-18 02:16:00,25.9,20.0,28.72,South,180,13.8,13.8,78,0.00,CLR,,0.00,WeatherDisplay:10.37,2013-12-18 08:16:00,
2013-12-18 02:21:00,26.1,20.1,28.72,South,180,17.3,17.3,78,0.00,CLR,,0.00,WeatherDisplay:10.37,2013-12-18 08:21:00,
2013-12-18 02:26:00,26.2,20.3,28.72,South,180,16.1,16.1,78,0.00,CLR,,0.00,WeatherDisplay:10.37,2013-12-18 08:26:00,
2013-12-18 02:31:00,26.2,20.3,28.71,SE,135,15.0,15.0,78,0.00,CLR,,0.00,WeatherDisplay:10.37,2013-12-18 08:31:00,
2013-12-18 02:36:00,26.2,20.3,28.71,SE,135,17.3,17.3,78,0.00,CLR,,0.00,WeatherDisplay:10.37,2013-12-18 08:36:00,
2013-12-18 02:41:00,26.4,20.5,28.71,SSE,158,15.0,15.0,78,0.00,CLR,,0.00,WeatherDisplay:10.37,2013-12-18 08:41:00,
2013-12-18 02:46:00,26.2,20.3,28.71,SE,135,13.8,13.8,78,0.00,CLR,,0.00,WeatherDisplay:10.37,2013-12-18 08:46:00,
2013-12-18 02:51:00,26.1,20.4,28.71,SE,135,15.0,15.0,79,0.00,CLR,,0.00,WeatherDisplay:10.37,2013-12-18 08:51:00,
2013-12-18 02:56:00,26.1,20.4,28.70,SE,135,16.1,16.1,79,0.00,CLR,,0.00,WeatherDisplay:10.37,2013-12-18 08:56:00,
2013-12-18 03:01:00,25.9,20.3,28.70,South,180,15.0,15.0,79,0.00,CLR,,0.00,WeatherDisplay:10.37,2013-12-18 09:01:00,
2013-12-18 03:06:00,25.5,20.2,28.69,SE,135,15.0,15.0,80,0.00,CLR,,0.00,WeatherDisplay:10.37,2013-12-18 09:06:00,
2013-12-18 03:11:00,25.7,20.4,28.69,South,180,17.3,17.3,80,0.00,CLR,,0.00,WeatherDisplay:10.37,2013-12-18 09:11:00,
2013-12-18 03:16:00,25.7,20.4,28.69,SE,135,15.0,15.0,80,0.00,CLR,,0.00,WeatherDisplay:10.37,2013-12-18 09:16:00,
2013-12-18 03:21:00,25.7,20.4,28.69,SE,135,12.7,12.7,80,0.00,CLR,,0.00,WeatherDisplay:10.37,2013-12-18 09:21:00,
2013-12-18 03:27:00,25.5,20.5,28.69,SE,135,12.7,12.7,81,0.00,CLR,,0.00,WeatherDisplay:10.37,2013-12-18 09:27:00,
2013-12-18 03:31:00,25.9,20.6,28.69,South,180,13.8,13.8,80,0.00,CLR,,0.00,WeatherDisplay:10.37,2013-12-18 09:31:00,
2013-12-18 03:36:00,25.9,20.6,28.69,South,180,12.7,12.7,80,0.00,CLR,,0.00,WeatherDisplay:10.37,2013-12-18 09:36:00,
2013-12-18 03:41:00,25.9,20.9,28.68,SE,135,15.0,15.0,81,0.00,CLR,,0.00,WeatherDisplay:10.37,2013-12-18 09:41:00,
2013-12-18 03:46:00,25.7,20.7,28.68,SSE,158,14.5,14.5,81,0.00,CLR,,0.00,WeatherDisplay:10.37,2013-12-18 09:46:00,
2013-12-18 03:51:00,25.7,20.7,28.68,South,180,12.7,12.7,81,0.00,CLR,,0.00,WeatherDisplay:10.37,2013-12-18 09:51:00,
2013-12-18 03:56:00,25.5,20.5,28.67,SE,135,12.7,12.7,81,0.00,CLR,,0.00,WeatherDisplay:10.37,2013-12-18 09:56:00,
2013-12-18 04:01:00,25.5,20.8,28.67,SE,135,12.7,12.7,82,0.00,CLR,,0.00,WeatherDisplay:10.37,2013-12-18 10:01:00,
2013-12-18 04:06:00,25.5,20.8,28.67,SE,135,12.7,12.7,82,0.00,CLR,,0.00,WeatherDisplay:10.37,2013-12-18 10:06:00,
2013-12-18 04:11:00,25.3,20.6,28.66,SE,135,15.0,15.0,82,0.00,CLR,,0.00,WeatherDisplay:10.37,2013-12-18 10:11:00,
2013-12-18 04:16:00,25.5,20.8,28.66,SE,135,15.0,15.0,82,0.00,CLR,,0.00,WeatherDisplay:10.37,2013-12-18 10:16:00,
2013-12-18 04:21:00,25.3,20.6,28.66,SSE,158,15.0,15.0,82,0.00,CLR,,0.00,WeatherDisplay:10.37,2013-12-18 10:21:00,
2013-12-18 04:26:00,25.0,20.5,28.66,South,180,10.4,10.4,83,0.00,CLR,,0.00,WeatherDisplay:10.37,2013-12-18 10:26:00,
2013-12-18 04:31:00,24.6,20.5,28.65,SE,135,10.4,10.4,84,0.00,CLR,,0.00,WeatherDisplay:10.37,2013-12-18 10:31:00,
2013-12-18 04:36:00,24.8,20.7,28.65,South,180,11.5,11.5,84,0.00,CLR,,0.00,WeatherDisplay:10.37,2013-12-18 10:36:00,
2013-12-18 04:41:00,25.0,20.8,28.65,SSE,158,12.7,12.7,84,0.00,CLR,,0.00,WeatherDisplay:10.37,2013-12-18 10:41:00,
2013-12-18 04:46:00,25.0,20.8,28.64,South,180,13.8,13.8,84,0.00,CLR,,0.00,WeatherDisplay:10.37,2013-12-18 10:46:00,
2013-12-18 04:51:00,25.2,21.0,28.64,SE,135,12.7,12.7,84,0.00,CLR,,0.00,WeatherDisplay:10.37,2013-12-18 10:51:00,
2013-12-18 04:56:00,25.3,21.2,28.64,South,180,12.7,12.7,84,0.00,CLR,,0.00,WeatherDisplay:10.37,2013-12-18 10:56:00,
2013-12-18 05:02:00,25.3,21.2,28.64,SSE,158,15.0,15.0,84,0.00,CLR,,0.00,WeatherDisplay:10.37,2013-12-18 11:02:00,
2013-12-18 05:07:00,25.3,21.2,28.63,SSE,158,15.0,15.0,84,0.00,CLR,,0.00,WeatherDisplay:10.37,2013-12-18 11:07:00,
2013-12-18 05:12:00,24.6,20.8,28.63,SE,135,11.5,11.5,85,0.00,CLR,,0.00,WeatherDisplay:10.37,2013-12-18 11:12:00,
2013-12-18 05:14:00,24.6,20.8,28.63,SSE,158,10.4,10.4,85,0.00,CLR,,0.00,WeatherDisplay:10.37,2013-12-18 11:14:00,
2013-12-18 05:19:00,24.8,21.2,28.62,South,180,12.7,12.7,86,0.00,CLR,,0.00,WeatherDisplay:10.37,2013-12-18 11:19:00,
2013-12-18 05:24:00,25.2,21.3,28.62,South,180,12.7,12.7,85,0.00,CLR,,0.00,WeatherDisplay:10.37,2013-12-18 11:24:00,
2013-12-18 05:29:00,25.0,21.1,28.62,SSE,158,12.7,12.7,85,0.00,CLR,,0.00,WeatherDisplay:10.37,2013-12-18 11:29:00,
2013-12-18 05:34:00,25.2,21.3,28.62,South,180,9.2,9.2,85,0.00,CLR,,0.00,WeatherDisplay:10.37,2013-12-18 11:34:00,
2013-12-18 05:39:00,25.2,21.3,28.61,South,180,11.5,11.5,85,0.00,CLR,,0.00,WeatherDisplay:10.37,2013-12-18 11:39:00,
2013-12-18 05:44:00,25.2,21.3,28.61,South,180,11.4,11.4,85,0.00,CLR,,0.00,WeatherDisplay:10.37,2013-12-18 11:44:00,
2013-12-18 05:49:00,25.2,21.6,28.61,South,180,10.4,10.4,86,0.00,CLR,,0.00,WeatherDisplay:10.37,2013-12-18 11:49:00,
2013-12-18 05:54:00,25.3,21.7,28.61,SE,135,11.5,11.5,86,0.00,CLR,,0.00,WeatherDisplay:10.37,2013-12-18 11:54:00,
2013-12-18 05:59:00,25.5,21.9,28.61,South,180,13.8,13.8,86,0.00,CLR,,0.00,WeatherDisplay:10.37,2013-12-18 11:59:00,
2013-12-18 06:04:00,25.5,21.9,28.60,SSE,158,12.7,12.7,86,0.00,CLR,,0.00,WeatherDisplay:10.37,2013-12-18 12:04:00,
2013-12-18 06:09:00,25.7,22.1,28.60,SE,135,15.0,15.0,86,0.00,CLR,,0.00,WeatherDisplay:10.37,2013-12-18 12:09:00,
2013-12-18 06:14:00,25.9,22.0,28.60,South,180,12.7,12.7,85,0.00,CLR,,0.00,WeatherDisplay:10.37,2013-12-18 12:14:00,
2013-12-18 06:19:00,25.7,21.8,28.60,South,180,12.7,12.7,85,0.00,CLR,,0.00,WeatherDisplay:10.37,2013-12-18 12:19:00,
2013-12-18 06:24:00,25.7,22.1,28.60,SE,135,13.8,13.8,86,0.00,CLR,,0.00,WeatherDisplay:10.37,2013-12-18 12:24:00,
2013-12-18 06:29:00,25.7,22.1,28.60,SE,135,10.4,10.4,86,0.00,CLR,,0.00,WeatherDisplay:10.37,2013-12-18 12:29:00,
2013-12-18 06:34:00,25.7,22.1,28.60,SE,135,11.4,11.4,86,0.00,CLR,,0.00,WeatherDisplay:10.37,2013-12-18 12:34:00,
2013-12-18 06:39:00,25.7,22.1,28.60,SE,135,11.5,11.5,86,0.00,CLR,,0.00,WeatherDisplay:10.37,2013-12-18 12:39:00,
2013-12-18 06:44:00,25.5,21.9,28.60,South,180,10.4,10.4,86,0.00,CLR,,0.00,WeatherDisplay:10.37,2013-12-18 12:44:00,
2013-12-18 06:49:00,25.3,21.7,28.59,SSE,158,11.5,11.5,86,0.00,CLR,,0.00,WeatherDisplay:10.37,2013-12-18 12:49:00,
2013-12-18 06:54:00,25.5,22.2,28.58,SE,135,12.7,12.7,87,0.00,CLR,,0.00,WeatherDisplay:10.37,2013-12-18 12:54:00,
2013-12-18 06:59:00,25.7,22.4,28.59,SSE,158,12.7,12.7,87,0.00,CLR,,0.00,WeatherDisplay:10.37,2013-12-18 12:59:00,
2013-12-18 07:04:00,25.7,22.4,28.59,SSE,158,10.7,10.7,87,0.00,CLR,,0.00,WeatherDisplay:10.37,2013-12-18 13:04:00,
2013-12-18 07:09:00,25.5,21.9,28.58,South,180,10.4,10.4,86,0.00,CLR,,0.00,WeatherDisplay:10.37,2013-12-18 13:09:00,
2013-12-18 07:14:00,25.9,22.5,28.59,SE,135,12.7,12.7,87,0.00,CLR,,0.00,WeatherDisplay:10.37,2013-12-18 13:14:00,
2013-12-18 07:19:00,26.1,22.7,28.58,SE,135,10.4,10.4,87,0.00,CLR,,0.00,WeatherDisplay:10.37,2013-12-18 13:19:00,
2013-12-18 07:24:00,26.1,22.4,28.58,South,180,11.5,11.5,86,0.00,CLR,,0.00,WeatherDisplay:10.37,2013-12-18 13:24:00,
2013-12-18 07:29:00,26.1,22.4,28.58,South,180,10.4,10.4,86,0.00,CLR,,0.00,WeatherDisplay:10.37,2013-12-18 13:29:00,
2013-12-18 07:34:00,26.1,22.4,28.58,South,180,9.2,9.2,86,0.00,CLR,,0.00,WeatherDisplay:10.37,2013-12-18 13:34:00,
2013-12-18 07:39:00,25.7,22.1,28.58,South,180,9.2,9.2,86,0.00,CLR,,0.00,WeatherDisplay:10.37,2013-12-18 13:39:00,
2013-12-18 07:44:00,25.7,22.4,28.58,SE,135,8.1,8.1,87,0.00,CLR,,0.00,WeatherDisplay:10.37,2013-12-18 13:44:00,
2013-12-18 07:49:00,25.9,22.5,28.58,SSE,158,11.5,11.5,87,0.00,CLR,,0.00,WeatherDisplay:10.37,2013-12-18 13:49:00,
2013-12-18 07:54:00,25.9,22.5,28.57,South,180,10.4,10.4,87,0.00,CLR,,0.00,WeatherDisplay:10.37,2013-12-18 13:54:00,
2013-12-18 07:59:00,26.1,22.7,28.57,SE,135,10.4,10.4,87,0.00,CLR,,0.00,WeatherDisplay:10.37,2013-12-18 13:59:00,
2013-12-18 08:04:00,26.1,22.7,28.57,SE,135,10.4,10.4,87,0.00,CLR,,0.00,WeatherDisplay:10.37,2013-12-18 14:04:00,
2013-12-18 08:09:00,26.1,22.4,28.57,SE,135,10.4,10.4,86,0.00,CLR,,0.00,WeatherDisplay:10.37,2013-12-18 14:09:00,
2013-12-18 08:14:00,26.1,22.7,28.57,South,180,8.1,8.1,87,0.00,CLR,,0.00,WeatherDisplay:10.37,2013-12-18 14:14:00,
2013-12-18 08:19:00,26.2,22.9,28.57,SE,135,10.4,10.4,87,0.00,CLR,,0.00,WeatherDisplay:10.37,2013-12-18 14:19:00,
2013-12-18 08:24:00,26.6,23.3,28.57,SSE,158,9.2,9.2,87,0.00,CLR,,0.00,WeatherDisplay:10.37,2013-12-18 14:24:00,
2013-12-18 08:29:00,27.1,23.5,28.57,SSE,158,8.1,8.1,86,0.00,CLR,,0.00,WeatherDisplay:10.37,2013-12-18 14:29:00,
2013-12-18 08:34:00,27.5,23.6,28.57,South,180,8.1,8.1,85,0.00,CLR,,0.00,WeatherDisplay:10.37,2013-12-18 14:34:00,
2013-12-18 08:39:00,27.7,23.5,28.58,SSE,158,8.1,8.1,84,0.00,CLR,,0.00,WeatherDisplay:10.37,2013-12-18 14:39:00,
2013-12-18 08:44:00,28.0,23.8,28.58,SSE,158,6.9,6.9,84,0.00,CLR,,0.00,WeatherDisplay:10.37,2013-12-18 14:44:00,
2013-12-18 08:49:00,28.2,24.0,28.58,South,180,6.9,6.9,84,0.00,CLR,,0.00,WeatherDisplay:10.37,2013-12-18 14:49:00,
2013-12-18 08:54:00,28.6,24.4,28.58,SE,135,8.1,8.1,84,0.00,CLR,,0.00,WeatherDisplay:10.37,2013-12-18 14:54:00,
2013-12-18 08:59:00,29.1,24.9,28.58,South,180,8.1,8.1,84,0.00,CLR,,0.00,WeatherDisplay:10.37,2013-12-18 14:59:00,
2013-12-18 09:04:00,29.3,24.8,28.58,SE,135,8.1,8.1,83,0.00,CLR,,0.00,WeatherDisplay:10.37,2013-12-18 15:04:00,
2013-12-18 09:09:00,31.3,26.1,28.58,SSE,158,8.1,8.1,81,0.00,CLR,,0.00,WeatherDisplay:10.37,2013-12-18 15:09:00,
2013-12-18 09:14:00,32.0,26.5,28.58,South,180,8.1,8.1,80,0.00,CLR,,0.00,WeatherDisplay:10.37,2013-12-18 15:14:00,
2013-12-18 09:19:00,32.4,26.9,28.58,South,180,9.2,9.2,80,0.00,CLR,,0.00,WeatherDisplay:10.37,2013-12-18 15:19:00,
2013-12-18 09:24:00,32.7,26.9,28.58,SSE,158,10.4,10.4,79,0.00,CLR,,0.00,WeatherDisplay:10.37,2013-12-18 15:24:00,
2013-12-18 09:29:00,33.1,27.3,28.58,South,180,12.7,12.7,79,0.00,CLR,,0.00,WeatherDisplay:10.37,2013-12-18 15:29:00,
2013-12-18 09:34:00,33.8,28.0,28.57,South,180,10.4,10.4,79,0.00,CLR,,0.00,WeatherDisplay:10.37,2013-12-18 15:34:00,
2013-12-18 09:39:00,34.7,28.5,28.58,South,180,11.5,11.5,78,0.00,CLR,,0.00,WeatherDisplay:10.37,2013-12-18 15:39:00,
2013-12-18 09:44:00,35.2,28.4,28.58,South,180,10.4,10.4,76,0.00,CLR,,0.00,WeatherDisplay:10.37,2013-12-18 15:44:00,
2013-12-18 09:49:00,35.4,28.6,28.58,South,180,9.2,9.2,76,0.00,CLR,,0.00,WeatherDisplay:10.37,2013-12-18 15:49:00,
2013-12-18 09:54:00,36.1,29.0,28.58,SSE,158,8.1,8.1,75,0.00,CLR,,0.00,WeatherDisplay:10.37,2013-12-18 15:54:00,
2013-12-18 09:59:00,36.7,28.8,28.58,South,180,10.4,10.4,73,0.00,CLR,,0.00,WeatherDisplay:10.37,2013-12-18 15:59:00,
2013-12-18 10:04:00,36.9,29.0,28.57,SE,135,9.2,9.2,73,0.00,CLR,,0.00,WeatherDisplay:10.37,2013-12-18 16:04:00,
2013-12-18 10:09:00,37.9,29.4,28.57,South,180,11.5,11.5,71,0.00,CLR,,0.00,WeatherDisplay:10.37,2013-12-18 16:09:00,
2013-12-18 10:14:00,37.9,29.0,28.57,South,180,10.4,10.4,70,0.00,CLR,,0.00,WeatherDisplay:10.37,2013-12-18 16:14:00,
2013-12-18 10:19:00,37.2,29.0,28.57,South,180,10.4,10.4,72,0.00,CLR,,0.00,WeatherDisplay:10.37,2013-12-18 16:19:00,
2013-12-18 10:24:00,37.6,29.4,28.57,South,180,9.2,9.2,72,0.00,CLR,,0.00,WeatherDisplay:10.37,2013-12-18 16:24:00,
2013-12-18 10:30:00,37.6,29.4,28.57,South,180,10.4,10.4,72,0.00,CLR,,0.00,WeatherDisplay:10.37,2013-12-18 16:30:00,
2013-12-18 10:35:00,37.4,29.5,28.57,SSE,158,10.4,10.4,73,0.00,CLR,,0.00,WeatherDisplay:10.37,2013-12-18 16:35:00,
2013-12-18 10:40:00,37.6,30.0,28.57,South,180,9.2,9.2,74,0.00,CLR,,0.00,WeatherDisplay:10.37,2013-12-18 16:40:00,
2013-12-18 10:45:00,38.1,30.6,28.57,South,180,8.1,8.1,74,0.00,CLR,,0.00,WeatherDisplay:10.37,2013-12-18 16:45:00,
2013-12-18 10:50:00,38.5,30.2,28.56,South,180,8.1,8.1,72,0.00,CLR,,0.00,WeatherDisplay:10.37,2013-12-18 16:50:00,
2013-12-18 10:55:00,39.0,30.4,28.57,South,180,5.8,5.8,71,0.00,CLR,,0.00,WeatherDisplay:10.37,2013-12-18 16:55:00,
2013-12-18 11:00:00,39.6,30.2,28.57,South,180,6.9,6.9,69,0.00,CLR,,0.00,WeatherDisplay:10.37,2013-12-18 17:00:00,
2013-12-18 11:05:00,39.6,30.2,28.57,South,180,6.9,6.9,69,0.00,CLR,,0.00,WeatherDisplay:10.37,2013-12-18 17:05:00,
2013-12-18 11:10:00,41.0,30.9,28.56,SE,135,8.1,8.1,67,0.00,CLR,,0.00,WeatherDisplay:10.37,2013-12-18 17:10:00,
2013-12-18 11:15:00,40.8,30.7,28.56,South,180,8.1,8.1,67,0.00,CLR,,0.00,WeatherDisplay:10.37,2013-12-18 17:15:00,
2013-12-18 11:20:00,41.0,31.2,28.56,South,180,8.1,8.1,68,0.00,CLR,,0.00,WeatherDisplay:10.37,2013-12-18 17:20:00,
2013-12-18 11:25:00,41.4,31.2,28.56,South,180,8.1,8.1,67,0.00,CLR,,0.00,WeatherDisplay:10.37,2013-12-18 17:25:00,
2013-12-18 11:32:00,41.7,31.2,28.56,South,180,8.1,8.1,66,0.00,CLR,,0.00,WeatherDisplay:10.37,2013-12-18 17:32:00,
2013-12-18 11:37:00,42.8,30.7,28.56,South,180,8.1,8.1,62,0.00,CLR,,0.00,WeatherDisplay:10.37,2013-12-18 17:37:00,
2013-12-18 11:42:00,42.8,30.7,28.56,South,180,8.1,8.1,62,0.00,CLR,,0.00,WeatherDisplay:10.37,2013-12-18 17:42:00,
2013-12-18 11:47:00,43.2,31.0,28.56,South,180,6.9,6.9,62,0.00,CLR,,0.00,WeatherDisplay:10.37,2013-12-18 17:47:00,
2013-12-18 11:52:00,43.5,31.0,28.55,South,180,8.1,8.1,61,0.00,CLR,,0.00,WeatherDisplay:10.37,2013-12-18 17:52:00,
2013-12-18 11:57:00,43.7,31.1,28.55,South,180,9.2,9.2,61,0.00,CLR,,0.00,WeatherDisplay:10.37,2013-12-18 17:57:00,
2013-12-18 12:02:00,43.5,31.0,28.55,South,180,10.4,10.4,61,0.00,CLR,,0.00,WeatherDisplay:10.37,2013-12-18 18:02:00,
2013-12-18 12:07:00,43.5,31.0,28.55,South,180,9.2,9.2,61,0.00,CLR,,0.00,WeatherDisplay:10.37,2013-12-18 18:07:00,
2013-12-18 12:12:00,44.8,32.5,28.55,South,180,8.1,8.1,62,0.00,CLR,,0.00,WeatherDisplay:10.37,2013-12-18 18:12:00,
2013-12-18 12:17:00,45.3,31.0,28.55,South,180,8.1,8.1,57,0.00,CLR,,0.00,WeatherDisplay:10.37,2013-12-18 18:17:00,
2013-12-18 12:22:00,45.5,30.3,28.55,South,180,8.1,8.1,55,0.00,CLR,,0.00,WeatherDisplay:10.37,2013-12-18 18:22:00,
2013-12-18 12:27:00,46.0,31.6,28.55,South,180,5.8,5.8,57,0.00,CLR,,0.00,WeatherDisplay:10.37,2013-12-18 18:27:00,
2013-12-18 12:32:00,47.1,31.3,28.54,SE,135,6.9,6.9,54,0.00,CLR,,0.00,WeatherDisplay:10.37,2013-12-18 18:32:00,
2013-12-18 12:37:00,47.8,31.5,28.54,SSE,158,5.8,5.8,53,0.00,CLR,,0.00,WeatherDisplay:10.37,2013-12-18 18:37:00,
2013-12-18 12:42:00,48.7,31.4,28.54,South,180,5.8,5.8,51,0.00,CLR,,0.00,WeatherDisplay:10.37,2013-12-18 18:42:00,
2013-12-18 12:47:00,49.6,31.2,28.54,South,180,5.8,5.8,49,0.00,CLR,,0.00,WeatherDisplay:10.37,2013-12-18 18:47:00,
2013-12-18 12:52:00,49.8,31.9,28.54,South,180,5.8,5.8,50,0.00,CLR,,0.00,WeatherDisplay:10.37,2013-12-18 18:52:00,
2013-12-18 12:57:00,50.0,31.6,28.54,South,180,6.9,6.9,49,0.00,CLR,,0.00,WeatherDisplay:10.37,2013-12-18 18:57:00,
2013-12-18 13:02:00,50.5,32.1,28.54,SE,135,5.8,5.8,49,0.00,CLR,,0.00,WeatherDisplay:10.37,2013-12-18 19:02:00,
2013-12-18 13:07:00,50.5,32.1,28.54,SE,135,5.8,5.8,49,0.00,CLR,,0.00,WeatherDisplay:10.37,2013-12-18 19:07:00,
2013-12-18 13:12:00,51.4,32.4,28.54,SE,135,3.8,3.8,48,0.00,CLR,,0.00,WeatherDisplay:10.37,2013-12-18 19:12:00,
2013-12-18 13:17:00,52.3,32.7,28.53,SE,135,4.6,4.6,47,0.00,CLR,,0.00,WeatherDisplay:10.37,2013-12-18 19:17:00,
2013-12-18 13:22:00,52.9,32.6,28.53,South,180,3.5,0.0,46,0.00,CLR,,0.00,WeatherDisplay:10.37,2013-12-18 19:22:00,
2013-12-18 13:27:00,53.4,31.5,28.53,South,180,0.0,0.0,43,0.00,CLR,,0.00,WeatherDisplay:10.37,2013-12-18 19:27:00,
2013-12-18 13:32:00,52.9,32.6,28.53,SE,135,0.0,0.0,46,0.00,CLR,,0.00,WeatherDisplay:10.37,2013-12-18 19:32:00,
2013-12-18 13:37:00,52.9,32.6,28.53,South,180,1.2,0.0,46,0.00,CLR,,0.00,WeatherDisplay:10.37,2013-12-18 19:37:00,
2013-12-18 13:42:00,54.0,33.6,28.53,South,180,0.0,0.0,46,0.00,CLR,,0.00,WeatherDisplay:10.37,2013-12-18 19:42:00,
2013-12-18 13:47:00,54.3,32.8,28.53,East,90,0.0,0.0,44,0.00,CLR,,0.00,WeatherDisplay:10.37,2013-12-18 19:47:00,
2013-12-18 13:52:00,55.0,31.7,28.53,South,180,0.0,3.1,41,0.00,CLR,,0.00,WeatherDisplay:10.37,2013-12-18 19:52:00,
2013-12-18 13:57:00,54.9,32.2,28.53,SE,135,0.0,0.0,42,0.00,CLR,,0.00,WeatherDisplay:10.37,2013-12-18 19:57:00,
2013-12-18 14:02:00,55.8,32.4,28.53,SSW,202,0.0,0.0,41,0.00,CLR,,0.00,WeatherDisplay:10.37,2013-12-18 20:02:00,
2013-12-18 14:07:00,55.8,32.4,28.52,SSW,202,0.0,0.0,41,0.00,CLR,,0.00,WeatherDisplay:10.37,2013-12-18 20:07:00,
2013-12-18 14:12:00,55.4,31.5,28.52,South,180,4.6,4.6,40,0.00,CLR,,0.00,WeatherDisplay:10.37,2013-12-18 20:12:00,
2013-12-18 14:17:00,55.0,31.7,28.52,SW,225,0.0,0.0,41,0.00,CLR,,0.00,WeatherDisplay:10.37,2013-12-18 20:17:00,
2013-12-18 14:22:00,55.0,32.3,28.52,SW,225,0.0,0.0,42,0.00,CLR,,0.00,WeatherDisplay:10.37,2013-12-18 20:22:00,
2013-12-18 14:27:00,56.3,33.5,28.52,SW,225,1.2,0.0,42,0.00,CLR,,0.00,WeatherDisplay:10.37,2013-12-18 20:27:00,
2013-12-18 14:32:00,57.4,31.3,28.52,SW,225,0.0,0.0,37,0.00,CLR,,0.00,WeatherDisplay:10.37,2013-12-18 20:32:00,
2013-12-18 14:37:00,57.0,31.6,28.52,South,180,1.2,0.0,38,0.00,CLR,,0.00,WeatherDisplay:10.37,2013-12-18 20:37:00,
2013-12-18 14:42:00,56.8,32.1,28.52,South,180,0.0,0.0,39,0.00,CLR,,0.00,WeatherDisplay:10.37,2013-12-18 20:42:00,
2013-12-18 14:47:00,55.4,32.1,28.52,SW,225,3.5,0.0,41,0.00,CLR,,0.00,WeatherDisplay:10.37,2013-12-18 20:47:00,
2013-12-18 14:52:00,54.3,31.7,28.53,SW,225,0.0,0.0,42,0.00,CLR,,0.00,WeatherDisplay:10.37,2013-12-18 20:52:00,
2013-12-18 14:57:00,54.7,32.0,28.53,SW,225,5.8,5.8,42,0.00,CLR,,0.00,WeatherDisplay:10.37,2013-12-18 20:57:00,
2013-12-18 15:02:00,54.5,31.9,28.52,SW,225,4.6,0.0,42,0.00,CLR,,0.00,WeatherDisplay:10.37,2013-12-18 21:02:00,
2013-12-18 15:07:00,54.5,31.9,28.52,SW,225,2.3,0.0,42,0.00,CLR,,0.00,WeatherDisplay:10.37,2013-12-18 21:07:00,
2013-12-18 15:12:00,56.3,32.9,28.52,South,180,0.0,0.0,41,0.00,CLR,,0.00,WeatherDisplay:10.37,2013-12-18 21:12:00,
2013-12-18 15:17:00,57.9,33.7,28.52,SE,135,0.0,0.0,40,0.00,CLR,,0.00,WeatherDisplay:10.37,2013-12-18 21:17:00,
2013-12-18 15:22:00,59.7,34.7,28.52,West,270,0.0,0.0,39,0.00,CLR,,0.00,WeatherDisplay:10.37,2013-12-18 21:22:00,
2013-12-18 15:27:00,62.4,35.8,28.53,North,0,0.0,0.0,37,0.00,CLR,,0.00,WeatherDisplay:10.37,2013-12-18 21:27:00,
2013-12-18 15:32:00,63.7,35.5,28.53,West,270,0.0,0.0,35,0.00,CLR,,0.00,WeatherDisplay:10.37,2013-12-18 21:32:00,
2013-12-18 15:37:00,62.8,34.0,28.53,NW,315,0.0,0.0,34,0.00,CLR,,0.00,WeatherDisplay:10.37,2013-12-18 21:37:00,
2013-12-18 15:42:00,59.0,31.4,28.53,West,270,0.0,0.0,35,0.00,CLR,,0.00,WeatherDisplay:10.37,2013-12-18 21:42:00,
2013-12-18 15:47:00,56.1,31.5,28.53,NW,315,0.0,0.0,39,0.00,CLR,,0.00,WeatherDisplay:10.37,2013-12-18 21:47:00,
2013-12-18 15:52:00,53.8,31.2,28.53,NE,45,0.0,0.0,42,0.00,CLR,,0.00,WeatherDisplay:10.37,2013-12-18 21:52:00,
2013-12-18 15:57:00,52.2,32.0,28.53,NW,315,0.0,0.0,46,0.00,CLR,,0.00,WeatherDisplay:10.37,2013-12-18 21:57:00,
2013-12-18 16:02:00,51.6,32.0,28.53,NW,315,0.0,0.0,47,0.00,CLR,,0.00,WeatherDisplay:10.37,2013-12-18 22:02:00,
2013-12-18 16:07:00,51.6,32.0,28.53,NW,315,0.0,0.0,47,0.00,CLR,,0.00,WeatherDisplay:10.37,2013-12-18 22:07:00,
2013-12-18 16:12:00,50.0,32.6,28.53,West,270,0.0,0.0,51,0.00,CLR,,0.00,WeatherDisplay:10.37,2013-12-18 22:12:00,
2013-12-18 16:17:00,48.7,32.4,28.53,North,0,0.0,0.0,53,0.00,CLR,,0.00,WeatherDisplay:10.37,2013-12-18 22:17:00,
2013-12-18 16:22:00,48.0,31.7,28.53,North,0,0.0,0.0,53,0.00,CLR,,0.00,WeatherDisplay:10.37,2013-12-18 22:22:00,
2013-12-18 16:27:00,46.9,30.7,28.53,North,0,0.0,0.0,53,0.00,CLR,,0.00,WeatherDisplay:10.37,2013-12-18 22:27:00,
2013-12-18 16:32:00,46.4,31.1,28.53,North,0,0.0,0.0,55,0.00,CLR,,0.00,WeatherDisplay:10.37,2013-12-18 22:32:00,
2013-12-18 16:37:00,46.0,31.2,28.53,North,0,0.0,0.0,56,0.00,CLR,,0.00,WeatherDisplay:10.37,2013-12-18 22:37:00,
2013-12-18 16:42:00,45.9,31.9,28.54,NW,315,0.0,0.0,58,0.00,CLR,,0.00,WeatherDisplay:10.37,2013-12-18 22:42:00,
2013-12-18 16:47:00,45.1,30.8,28.54,East,90,0.0,0.0,57,0.00,CLR,,0.00,WeatherDisplay:10.37,2013-12-18 22:47:00,
2013-12-18 16:52:00,44.1,30.2,28.53,East,90,0.0,0.0,58,0.00,CLR,,0.00,WeatherDisplay:10.37,2013-12-18 22:52:00,
2013-12-18 16:57:00,43.2,30.6,28.54,South,180,0.0,0.0,61,0.00,CLR,,0.00,WeatherDisplay:10.37,2013-12-18 22:57:00,
2013-12-18 17:02:00,42.6,30.5,28.53,South,180,4.6,4.6,62,0.00,CLR,,0.00,WeatherDisplay:10.37,2013-12-18 23:02:00,
2013-12-18 17:07:00,42.6,30.5,28.54,South,180,4.6,4.6,62,0.00,CLR,,0.00,WeatherDisplay:10.37,2013-12-18 23:07:00,
2013-12-18 17:12:00,41.0,30.5,28.53,West,270,0.0,0.0,66,0.00,CLR,,0.00,WeatherDisplay:10.37,2013-12-18 23:12:00,
2013-12-18 17:17:00,41.7,31.2,28.53,West,270,0.0,0.0,66,0.00,CLR,,0.00,WeatherDisplay:10.37,2013-12-18 23:17:00,
2013-12-18 17:22:00,41.9,31.0,28.54,West,270,0.0,0.0,65,0.00,CLR,,0.00,WeatherDisplay:10.37,2013-12-18 23:22:00,
2013-12-18 17:27:00,41.7,30.8,28.54,West,270,0.0,0.0,65,0.00,CLR,,0.00,WeatherDisplay:10.37,2013-12-18 23:27:00,
2013-12-18 17:32:00,41.5,30.6,28.54,West,270,0.0,0.0,65,0.00,CLR,,0.00,WeatherDisplay:10.37,2013-12-18 23:32:00,
2013-12-18 17:37:00,40.8,30.0,28.54,NE,45,0.0,0.0,65,0.00,CLR,,0.00,WeatherDisplay:10.37,2013-12-18 23:37:00,
2013-12-18 17:42:00,39.4,29.3,28.54,NE,45,3.5,3.5,67,0.00,CLR,,0.00,WeatherDisplay:10.37,2013-12-18 23:42:00,
2013-12-18 17:47:00,38.8,29.5,28.55,NE,45,2.3,0.0,69,0.00,CLR,,0.00,WeatherDisplay:10.37,2013-12-18 23:47:00,
2013-12-18 17:48:00,38.7,29.4,28.55,NE,45,2.3,0.0,69,0.00,CLR,,0.00,WeatherDisplay:10.37,2013-12-18 23:48:00,
2013-12-18 17:52:00,37.8,28.1,28.54,East,90,0.0,0.0,68,0.00,CLR,,0.00,WeatherDisplay:10.37,2013-12-18 23:52:00,
2013-12-18 17:57:00,37.0,28.2,28.55,NE,45,2.3,0.0,70,0.00,CLR,,0.00,WeatherDisplay:10.37,2013-12-18 23:57:00,
2013-12-18 18:02:00,36.9,28.3,28.55,NE,45,0.0,0.0,71,0.00,CLR,,0.00,WeatherDisplay:10.37,2013-12-19 00:02:00,
2013-12-18 18:07:00,36.3,27.8,28.55,NE,45,0.0,0.0,71,0.00,CLR,,0.00,WeatherDisplay:10.37,2013-12-19 00:07:00,
2013-12-18 18:12:00,36.1,27.6,28.55,SE,135,0.0,0.0,71,0.00,CLR,,0.00,WeatherDisplay:10.37,2013-12-19 00:12:00,
2013-12-18 18:17:00,36.0,27.8,28.56,SE,135,0.0,0.0,72,0.00,CLR,,0.00,WeatherDisplay:10.37,2013-12-19 00:17:00,
2013-12-18 18:22:00,35.8,28.0,28.56,NE,45,0.0,0.0,73,0.00,CLR,,0.00,WeatherDisplay:10.37,2013-12-19 00:22:00,
2013-12-18 18:27:00,35.8,28.3,28.56,SE,135,0.0,0.0,74,0.00,CLR,,0.00,WeatherDisplay:10.37,2013-12-19 00:27:00,
2013-12-18 18:32:00,35.4,27.6,28.56,East,90,0.0,0.0,73,0.00,CLR,,0.00,WeatherDisplay:10.37,2013-12-19 00:32:00,
2013-12-18 18:37:00,35.1,27.6,28.56,NE,45,0.0,0.0,74,0.00,CLR,,0.00,WeatherDisplay:10.37,2013-12-19 00:37:00,
2013-12-18 18:42:00,34.7,27.6,28.56,NE,45,0.0,0.0,75,0.00,CLR,,0.00,WeatherDisplay:10.37,2013-12-19 00:42:00,
2013-12-18 18:47:00,34.3,27.6,28.56,NE,45,0.0,0.0,76,0.00,CLR,,0.00,WeatherDisplay:10.37,2013-12-19 00:47:00,
2013-12-18 18:52:00,33.6,26.5,28.56,East,90,0.0,0.0,75,0.00,CLR,,0.00,WeatherDisplay:10.37,2013-12-19 00:52:00,
2013-12-18 18:57:00,33.1,26.7,28.56,NE,45,0.0,0.0,77,0.00,CLR,,0.00,WeatherDisplay:10.37,2013-12-19 00:57:00,
2013-12-18 19:02:00,32.9,26.8,28.56,NE,45,0.0,0.0,78,0.00,CLR,,0.00,WeatherDisplay:10.37,2013-12-19 01:02:00,
2013-12-18 19:07:00,32.9,26.8,28.56,NE,45,0.0,0.0,78,0.00,CLR,,0.00,WeatherDisplay:10.37,2013-12-19 01:07:00,
2013-12-18 19:12:00,32.7,26.9,28.57,North,0,0.0,0.0,79,0.00,CLR,,0.00,WeatherDisplay:10.37,2013-12-19 01:12:00,
2013-12-18 19:17:00,32.5,26.7,28.57,North,0,0.0,0.0,79,0.00,CLR,,0.00,WeatherDisplay:10.37,2013-12-19 01:17:00,
2013-12-18 19:22:00,32.2,26.4,28.56,North,0,0.0,0.0,79,0.00,CLR,,0.00,WeatherDisplay:10.37,2013-12-19 01:22:00,
2013-12-18 19:27:00,32.2,26.7,28.57,NE,45,0.0,0.0,80,0.00,CLR,,0.00,WeatherDisplay:10.37,2013-12-19 01:27:00,
2013-12-18 19:32:00,32.0,26.8,28.57,NE,45,0.0,0.0,81,0.00,CLR,,0.00,WeatherDisplay:10.37,2013-12-19 01:32:00,
2013-12-18 19:37:00,32.4,27.8,28.57,NE,45,0.0,0.0,83,0.00,CLR,,0.00,WeatherDisplay:10.37,2013-12-19 01:37:00,
2013-12-18 19:42:00,32.2,27.3,28.57,North,0,0.0,0.0,82,0.00,CLR,,0.00,WeatherDisplay:10.37,2013-12-19 01:42:00,
2013-12-18 19:47:00,31.8,27.2,28.57,NW,315,0.0,0.0,83,0.00,CLR,,0.00,WeatherDisplay:10.37,2013-12-19 01:47:00,
2013-12-18 19:52:00,31.3,27.0,28.57,NW,315,0.0,0.0,84,0.00,CLR,,0.00,WeatherDisplay:10.37,2013-12-19 01:52:00,
2013-12-18 19:57:00,30.9,26.9,28.58,NW,315,3.5,3.5,85,0.00,CLR,,0.00,WeatherDisplay:10.37,2013-12-19 01:57:00,
2013-12-18 20:02:00,30.4,26.4,28.58,NW,315,3.5,3.5,85,0.00,CLR,,0.00,WeatherDisplay:10.37,2013-12-19 02:02:00,
2013-12-18 20:07:00,30.4,26.4,28.57,NW,315,3.5,3.5,85,0.00,CLR,,0.00,WeatherDisplay:10.37,2013-12-19 02:07:00,
2013-12-18 20:12:00,29.8,26.2,28.58,NW,315,0.0,0.0,86,0.00,CLR,,0.00,WeatherDisplay:10.37,2013-12-19 02:12:00,
2013-12-18 20:17:00,29.3,25.6,28.58,NW,315,0.0,0.0,86,0.00,CLR,,0.00,WeatherDisplay:10.37,2013-12-19 02:17:00,
2013-12-18 20:22:00,28.8,24.8,28.58,NW,315,0.0,0.0,85,0.00,CLR,,0.00,WeatherDisplay:10.37,2013-12-19 02:22:00,
2013-12-18 20:27:00,28.6,25.2,28.58,NW,315,0.0,0.0,87,0.00,CLR,,0.00,WeatherDisplay:10.37,2013-12-19 02:27:00,
2013-12-18 20:32:00,29.3,26.7,28.57,North,0,2.3,0.0,90,0.00,CLR,,0.00,WeatherDisplay:10.37,2013-12-19 02:32:00,
2013-12-18 20:37:00,30.4,28.3,28.58,North,0,0.0,0.0,92,0.00,CLR,,0.00,WeatherDisplay:10.37,2013-12-19 02:37:00,
2013-12-18 20:42:00,30.2,27.1,28.58,NW,315,0.0,0.0,88,0.00,CLR,,0.00,WeatherDisplay:10.37,2013-12-19 02:42:00,
2013-12-18 20:47:00,29.8,26.7,28.58,NW,315,1.2,0.0,88,0.00,CLR,,0.00,WeatherDisplay:10.37,2013-12-19 02:47:00,
2013-12-18 20:52:00,29.1,25.7,28.58,North,0,2.3,2.3,87,0.00,CLR,,0.00,WeatherDisplay:10.37,2013-12-19 02:52:00,
2013-12-18 20:57:00,28.9,25.8,28.58,North,0,1.2,0.0,88,0.00,CLR,,0.00,WeatherDisplay:10.37,2013-12-19 02:57:00,
2013-12-18 21:02:00,28.4,25.0,28.58,North,0,3.5,3.5,87,0.00,CLR,,0.00,WeatherDisplay:10.37,2013-12-19 03:02:00,
2013-12-18 21:07:00,28.4,25.0,28.58,North,0,3.5,3.5,87,0.00,CLR,,0.00,WeatherDisplay:10.37,2013-12-19 03:07:00,
2013-12-18 21:12:00,27.1,24.1,28.58,North,0,0.0,0.0,88,0.00,CLR,,0.00,WeatherDisplay:10.37,2013-12-19 03:12:00,
2013-12-18 21:17:00,27.5,24.7,28.58,North,0,0.0,0.0,89,0.00,CLR,,0.00,WeatherDisplay:10.37,2013-12-19 03:17:00,
2013-12-18 21:22:00,27.7,24.9,28.58,North,0,0.0,0.0,89,0.00,CLR,,0.00,WeatherDisplay:10.37,2013-12-19 03:22:00,
2013-12-18 21:27:00,27.7,24.9,28.58,North,0,0.0,0.0,89,0.00,CLR,,0.00,WeatherDisplay:10.37,2013-12-19 03:27:00,
2013-12-18 21:32:00,27.1,24.1,28.58,North,0,0.0,0.0,88,0.00,CLR,,0.00,WeatherDisplay:10.37,2013-12-19 03:32:00,
2013-12-18 21:37:00,26.8,23.7,28.58,North,0,0.0,0.0,88,0.00,CLR,,0.00,WeatherDisplay:10.37,2013-12-19 03:37:00,
2013-12-18 21:42:00,26.6,23.8,28.58,NW,315,0.0,0.0,89,0.00,CLR,,0.00,WeatherDisplay:10.37,2013-12-19 03:42:00,
2013-12-18 21:47:00,26.2,23.7,28.59,NW,315,0.0,0.0,90,0.00,CLR,,0.00,WeatherDisplay:10.37,2013-12-19 03:47:00,
2013-12-18 21:52:00,25.9,23.4,28.60,North,0,3.5,3.5,90,0.00,CLR,,0.00,WeatherDisplay:10.37,2013-12-19 03:52:00,
2013-12-18 21:57:00,25.5,23.0,28.60,North,0,0.7,0.0,90,0.00,CLR,,0.00,WeatherDisplay:10.37,2013-12-19 03:57:00,
2013-12-18 22:02:00,25.3,22.8,28.60,North,0,0.0,0.0,90,0.00,CLR,,0.00,WeatherDisplay:10.37,2013-12-19 04:02:00,
2013-12-18 22:07:00,25.3,22.8,28.61,North,0,0.0,0.0,90,0.00,CLR,,0.00,WeatherDisplay:10.37,2013-12-19 04:07:00,
2013-12-18 22:12:00,26.4,24.7,28.60,NW,315,0.0,0.0,93,0.00,CLR,,0.00,WeatherDisplay:10.37,2013-12-19 04:12:00,
2013-12-18 22:17:00,26.6,24.8,28.60,West,270,0.0,0.0,93,0.00,CLR,,0.00,WeatherDisplay:10.37,2013-12-19 04:17:00,
2013-12-18 22:22:00,26.4,24.7,28.60,NW,315,0.0,0.0,93,0.00,CLR,,0.00,WeatherDisplay:10.37,2013-12-19 04:22:00,
2013-12-18 22:27:00,25.9,23.9,28.60,NW,315,0.0,0.0,92,0.00,CLR,,0.00,WeatherDisplay:10.37,2013-12-19 04:27:00,
2013-12-18 22:32:00,25.7,23.7,28.61,North,0,4.6,0.0,92,0.00,CLR,,0.00,WeatherDisplay:10.37,2013-12-19 04:32:00,
2013-12-18 22:37:00,25.7,24.0,28.60,North,0,3.5,0.0,93,0.00,CLR,,0.00,WeatherDisplay:10.37,2013-12-19 04:37:00,
2013-12-18 22:42:00,25.5,23.8,28.60,North,0,0.0,0.0,93,0.00,CLR,,0.00,WeatherDisplay:10.37,2013-12-19 04:42:00,
2013-12-18 22:47:00,25.5,23.8,28.60,North,0,0.0,0.0,93,0.00,CLR,,0.00,WeatherDisplay:10.37,2013-12-19 04:47:00,
2013-12-18 22:52:00,25.3,23.6,28.60,North,0,0.0,0.0,93,0.00,CLR,,0.00,WeatherDisplay:10.37,2013-12-19 04:52:00,
2013-12-18 22:57:00,25.5,23.8,28.60,NW,315,0.0,0.0,93,0.00,CLR,,0.00,WeatherDisplay:10.37,2013-12-19 04:57:00,
2013-12-18 23:01:00,25.3,23.6,28.61,NW,315,0.0,0.0,93,0.00,CLR,,0.00,WeatherDisplay:10.37,2013-12-19 05:01:00,
2013-12-18 23:02:00,25.3,23.6,28.60,NW,315,0.0,0.0,93,0.00,CLR,,0.00,WeatherDisplay:10.37,2013-12-19 05:02:00,
2013-12-18 23:07:00,25.3,23.6,28.60,NW,315,0.0,0.0,93,0.00,CLR,,0.00,WeatherDisplay:10.37,2013-12-19 05:07:00,
2013-12-18 23:12:00,25.0,23.0,28.61,WSW,248,0.0,0.0,92,0.00,CLR,,0.00,WeatherDisplay:10.37,2013-12-19 05:12:00,
2013-12-18 23:17:00,25.3,23.6,28.61,NW,315,0.0,0.0,93,0.00,CLR,,0.00,WeatherDisplay:10.37,2013-12-19 05:17:00,
2013-12-18 23:22:00,26.2,25.0,28.61,NW,315,2.3,2.3,95,0.00,CLR,,0.00,WeatherDisplay:10.37,2013-12-19 05:22:00,
2013-12-18 23:27:00,26.4,25.2,28.61,NW,315,3.5,3.5,95,0.00,CLR,,0.00,WeatherDisplay:10.37,2013-12-19 05:27:00,
2013-12-18 23:32:00,26.4,24.9,28.61,NW,315,3.5,3.5,94,0.00,CLR,,0.00,WeatherDisplay:10.37,2013-12-19 05:32:00,
2013-12-18 23:37:00,26.1,24.3,28.61,NW,315,2.3,2.3,93,0.00,CLR,,0.00,WeatherDisplay:10.37,2013-12-19 05:37:00,
2013-12-18 23:42:00,25.9,24.1,28.61,NW,315,3.5,3.5,93,0.00,CLR,,0.00,WeatherDisplay:10.37,2013-12-19 05:42:00,
2013-12-18 23:47:00,25.9,24.1,28.61,North,0,3.5,3.5,93,0.00,CLR,,0.00,WeatherDisplay:10.37,2013-12-19 05:47:00,
2013-12-18 23:52:00,25.7,24.0,28.61,NW,315,2.3,2.3,93,0.00,CLR,,0.00,WeatherDisplay:10.37,2013-12-19 05:52:00,
2013-12-18 23:57:00,25.5,23.8,28.61,NW,315,2.3,2.3,93,0.00,CLR,,0.00,WeatherDisplay:10.37,2013-12-19 05:57:00,